Bookmark and Share
Track history (hours):
 

Eviapetrol I

Last reported at 2014-Apr-23 08:33 UTC. Time now 2014-Apr-23 09:12 UTC.
Position N 36°25' E 028°01'.

Length 75 m; draft 4.8 m.

Type: Tanker. MMSI: 240285000.

NotesDate/timePositionNaut miles runAvg speedWind from/ knotsBaromVisibWave heightAir tempDewpointWater temp
2014-Apr-23 08:33N 36°25' E 028°01'9 9.4
2014-Apr-23 07:33N 36°22' E 027°50'10 9.6
2014-Apr-23 06:29N 36°18' E 027°38'9 9.5
2014-Apr-23 05:33N 36°15' E 027°28'1010.0
2014-Apr-23 04:33N 36°10' E 027°17'9 9.4
2014-Apr-23 03:33N 36°06' E 027°07'1010.1
2014-Apr-23 02:33N 36°02' E 026°55'1010.0
2014-Apr-23 01:33N 35°57' E 026°44'10 9.8
2014-Apr-23 00:33N 35°54' E 026°33'10 9.7
2014-Apr-22 23:33N 35°50' E 026°22'10 9.6
2014-Apr-22 22:33N 35°46' E 026°11'10 9.7
2014-Apr-22 21:33N 35°42' E 026°00'51 5.0
2014-Apr-22 11:16N 35°21' E 025°03'0 0.0
2014-Apr-22 09:17N 35°21' E 025°03'1 1.7
2014-Apr-22 08:32N 35°22' E 025°03'9 9.2
2014-Apr-22 07:33N 35°31' E 025°01'10 9.8
2014-Apr-22 06:33N 35°39' E 024°55'10 9.9
2014-Apr-22 05:33N 35°48' E 024°49'9 9.5
2014-Apr-22 04:33N 35°56' E 024°43'9 9.3
2014-Apr-22 03:33N 36°04' E 024°36'10 9.5
2014-Apr-22 02:33N 36°12' E 024°30'9 9.5
2014-Apr-22 01:33N 36°20' E 024°24'21 9.3
2014-Apr-21 23:17N 36°38' E 024°11'9 9.1
2014-Apr-21 22:15N 36°46' E 024°06'10 9.4
2014-Apr-21 21:08N 36°56' E 023°60'15 9.4
2014-Apr-21 19:33N 37°09' E 023°52'29 9.5
2014-Apr-21 16:32N 37°34' E 023°33'11 8.8
2014-Apr-21 15:14N 37°40' E 023°21'9 8.5
2014-Apr-21 14:12N 37°46' E 023°14'6 9.2
2014-Apr-21 13:33N 37°51' E 023°10'5 2.4
2014-Apr-21 11:28N 37°55' E 023°05'0 0.0
2014-Apr-21 05:18N 37°55' E 023°05'0 0.0
2014-Apr-21 04:20N 37°55' E 023°05'0 0.0
2014-Apr-20 19:22N 37°55' E 023°05'1 0.5
2014-Apr-20 18:07N 37°55' E 023°05'0 0.0
2014-Apr-20 17:31N 37°54' E 023°05'0 0.0
2014-Apr-20 14:14N 37°55' E 023°05'0 0.0
2014-Apr-20 13:14N 37°55' E 023°05'0 0.0
2014-Apr-20 12:25N 37°55' E 023°05'0 0.0
2014-Apr-20 11:13N 37°55' E 023°05'0 0.0
2014-Apr-20 10:21N 37°55' E 023°05'4 4.6
2014-Apr-20 09:32N 37°54' E 023°10'1010.1
2014-Apr-20 08:33N 37°51' E 023°22'1010.0
2014-Apr-20 07:33N 37°49' E 023°34'9 9.4
2014-Apr-20 06:33N 37°43' E 023°44'  
2014-Apr-17 09:33N 37°39' E 023°47'8 8.5
2014-Apr-17 08:33N 37°45' E 023°40'9 9.4
2014-Apr-17 07:33N 37°54' E 023°36'9 7.1
2014-Apr-17 06:20N 38°02' E 023°31'0 0.2
2014-Apr-17 05:33N 38°02' E 023°31'1 0.6
2014-Apr-17 04:27N 38°02' E 023°31'0 0.0
2014-Apr-17 03:11N 38°02' E 023°31'0 0.0
2014-Apr-17 02:30N 38°02' E 023°31'0 0.0
2014-Apr-17 01:23N 38°02' E 023°31'0 0.0
2014-Apr-17 00:14N 38°02' E 023°31'0 0.0
2014-Apr-16 22:25N 38°02' E 023°31'0 0.0
2014-Apr-16 21:32N 38°02' E 023°31'0 0.0
2014-Apr-16 20:22N 38°02' E 023°31'0 0.0
2014-Apr-16 19:33N 38°02' E 023°31'0 0.0
2014-Apr-16 18:22N 38°02' E 023°31'0 0.0
2014-Apr-16 17:32N 38°02' E 023°31'0 0.0
2014-Apr-16 16:11N 38°02' E 023°31'0 0.0
2014-Apr-16 15:32N 38°02' E 023°31'0 0.0
2014-Apr-16 14:12N 38°02' E 023°31'0 0.1
2014-Apr-16 13:32N 38°02' E 023°31'6 6.3
2014-Apr-16 12:34N 37°57' E 023°35'5 5.4
2014-Apr-16 11:33N 37°52' E 023°37'8 8.1
2014-Apr-16 10:33N 37°45' E 023°43'17 8.2
2014-Apr-16 08:32N 37°38' E 024°01'8 8.5
2014-Apr-16 07:33N 37°40' E 024°11'21 9.7
2014-Apr-16 05:25N 37°53' E 024°32'95 3.1
2014-Apr-14 22:33N 37°44' E 026°31'1010.0
2014-Apr-14 21:33N 37°35' E 026°37'19 9.3
2014-Apr-14 19:33N 37°20' E 026°51'38 1.7
2014-Apr-13 21:33N 37°01' E 026°09'9 8.6
2014-Apr-13 20:30N 37°06' E 025°60'8 8.6
2014-Apr-13 19:31N 37°10' E 025°51'8 8.6
2014-Apr-13 18:33N 37°12' E 025°40'9 8.8
2014-Apr-13 17:33N 37°14' E 025°30'9 9.2
2014-Apr-13 16:33N 37°16' E 025°18'9 9.2
2014-Apr-13 15:33N 37°18' E 025°07'9 9.3
2014-Apr-13 14:33N 37°21' E 024°56'9 9.2
2014-Apr-13 13:32N 37°24' E 024°45'10 9.5
2014-Apr-13 12:31N 37°28' E 024°34'9 9.5
2014-Apr-13 11:33N 37°30' E 024°22'10 9.1
2014-Apr-13 10:30N 37°32' E 024°11'  

Dump ship's entire track history

sailing weather and tide predictions

Eviapetrol I — SY5401 — position and weather